SBCFSBKP

Guest
Details From SBCF - Tancredo Neves
To SBKP - Sao Paulo Viracopos
Flight Number -
Tags Generated
Created
Modified
Stats Distance 270 nm / 500 km
Max Altitude 0 ft / 0 m
Waypoints 3
Social Downloads 0
Likes 0
Share VATSIM

Download

Looking for another format? Having issues loading an existing format? Contact us
Advertisement - Login to hide

Notes

Generated

Route

SBCF IP SBKP

ID Type Via Altitude Latitude Longitude Leg Dist Tot Dist Heading (true) Name
O SBCF APT - 0 ft / 0 m -19.62356˚ -43.97828˚ - 0 nm - -
IP NDB - 0 ft / 0 m -22.99283˚ -47.15517˚ 269 nm 269 nm 221° / 222° JARDIM NDB
O SBKP APT - 0 ft / 0 m -22.99843˚ -47.14702˚ 0 nm 269 nm 127° / 127° -

Altitude Profile

Advertisement - Login to hide

Weather


0- 5 10 15 20 25 30 35+ Temperature / ° C

Clouds and Precipitation
Forecast for 2018-05-24 00:00 UTC. Updated 2 hours ago

Ground ~20,000 ft ~40,000 ft Winds

SBCF

Details ICAO SBCF (CNF)
Name Tancredo Neves
Region Brazil
Timezone America/Sao_Paulo (UTC-3.0)
Stats Elevation 2,715 ft / 828 m (AMSL)
Location -19.633758° -43.968854°
Runways 1
Magnetic Variation 22.844° W

METAR

SBCF 240100Z 13006KT CAVOK 18/14 Q1024

Decode

TAF

TAF SBCF 232200Z 2400/2424 15003KT CAVOK TN13/2409Z TX25/2417Z BECMG 2408/2410 10005KT PROB40 2415/2421 9999 SCT030 RMK PDS

Decode

Departure Runways

ID Width Length Bearing (true) Bearing (mag) Surface Threshold Offset Overrun Length
16 148 ft / 45 m 9,872 ft / 3,009 m 138.97° 161.81° Asphalt 0 ft / 0 m 203 ft / 62 m
34 148 ft / 45 m 9,872 ft / 3,009 m 318.96° 341.80° Asphalt 0 ft / 0 m 203 ft / 62 m

SBKP

Details ICAO SBKP (VCP)
Name Sao Paulo Viracopos
Region Brazil
Timezone America/Sao_Paulo (UTC-3.0)
Stats Elevation 2,170 ft / 661 m (AMSL)
Location -23.007383° -47.134522°
Runways 1
Magnetic Variation 21.249° W

METAR

SBKP 240100Z 13012KT CAVOK 16/12 Q1024

Decode

TAF

TAF SBKP 232231Z 2400/2424 12008KT CAVOK TN12/2408Z TX26/2418Z PROB30 2409/2411 5000 BCFG BR NSC BECMG 2411/2413 07005KT PROB30 2415/2418 30005KT BECMG 2418/2420 22005KT BECMG 2420/2422 15007KT RMK PGO

Decode

Destination Runways

ID Width Length Bearing (true) Bearing (mag) Surface Threshold Offset Overrun Length
15 148 ft / 45 m 10,639 ft / 3,243 m 127.91° 149.16° Asphalt 0 ft / 0 m 205 ft / 62 m
33 148 ft / 45 m 10,639 ft / 3,243 m 307.90° 329.15° Asphalt 0 ft / 0 m 205 ft / 62 m

Approach Navaids

Runway Type Ident Frequency Range Bearing (true) Bearing (mag) Slope Elevation
15 Localiser IKP 110.30 MHz 18 nm / 33 km 127.95° 149.20° - 2,170 ft / 661 m (AMSL)
15 Glidescope IKP 110.30 MHz 10 nm / 19 km 127.90° 149.15° 3.00° 2,170 ft / 661 m (AMSL)

Popular Alternatives